Aeroporto :
LOGIN :

Iscrizione | Disclaimer

   EN    FR    IT 

 










Sommario :    VFR   VFR Marginale   IFR   IFR Intensivo   IFR Molto Intensivo
Visibilità : 
Base nubi : 
>= 8 km
>= 3000ft
5 / 8 km
1000 / 3000 ft
1500m / 5 km
500 / 1000 ft
800 / 1500m
200 / 500 ft
< 800m
< 200 ft
Simboli :   Temporali  Nebbia  Neve Forte  Precipitazioni Forti  Vento > 20 kt
SIGMETs :   Varie  Temporali  Ghiacco  Turbolenza  Onda orograficha  Ceneri Vulcaniche






- Altitudine del aeroporto : 814 ft
- Codice IATA : TLM


DAON - Zenata - Tlemcen

ULTIMO METAR :
  • 271630Z 33010KT 9999 SCT026 FEW030CB 26/17 Q1018

METARs OBSOLETI :
  • 271600Z 33010KT 9999 SCT026 FEW030CB 26/17 Q1018
  • 271530Z 35010KT 9999 SCT026 26/17 Q1018
  • 271500Z 35010KT 9999 SCT026 25/17 Q1018
  • 271430Z 35010KT 9999 SCT026 25/17 Q1018
  • 271400Z 35010KT 9999 SCT026 26/17 Q1018

TAF TAF DAON
Valido dal 27 a 12 ore il 28 a 12 ore UTC


271100Z 2712/2812 33008KT 9000 BKN020
BECMG 2713/2715 04015KT
PROB40
TEMPO 2717/2803 5000 -TSRA FEW023CB
BECMG 2803/2805 VRB02KT SCT010
PROB40
TEMPO 2805/2808 2000 BR BKN010



MetMap, La meteo Aeronautica in un colpo d'occhio ! - Copyright ORBIFLY Dicembre 2007 - Disclaimer

ORBIFLY MET'MAP TEAM :

Programmazione e sviluppo : Alexandra Zaïnal
Concezione : Baudouin d'Aumeries
Aiuto per la programmazione : Marc-Olivier Méhu
Supporto tecnico e logistico : Manuel Goepfert
Aiuto per la traduzione : Arnaldo La Scala

Contatto : metmap@orbifly.com




FONTI E CREDITI :

   NOAA